Latest Weather Observations for Kununurra Airport

IDD60801

Issued at 6:01 am CST Sunday 31 July 2016 (issued every 30 minutes, with the page automatically refreshed every 10 minutes)

About weather observations | Map of weather stations | Latest weather observations for NT | Other Formats
Station Details ID: 002056 Name: KUNUNURRA AERO Lat: -15.78 Lon: 128.71 Height: 44.0 m
Data from the previous 72 hours. | See also: Recent months at Kununurra Airport
Date/Time
CST
Temp
°C
App
Temp
°C
Dew
Point
°C
Rel
Hum
%
Delta-T
°C
Wind Press
QNH
hPa
Press
MSL
hPa
Rain since
9am
mm
Dir  Spd
km/h
Gust
km/h
Spd
kts
Gust
kts
31/06:00am 11.2 9.5 8.4 83 1.4 SSW 7 9 4 5 1014.3 1014.2 0.0
31/05:30am 11.7 10.1 8.2 79 1.7 SE 6 9 3 5 1014.2 1014.1 0.0
31/05:00am 11.4 11.0 8.4 82 1.5 CALM 0 0 0 0 1014.0 1013.9 0.0
31/04:30am 12.2 11.9 8.7 79 1.7 CALM 0 0 0 0 1013.8 1013.7 0.0
31/04:00am 11.9 11.4 7.8 76 2.0 CALM 0 0 0 0 1013.7 1013.6 0.0
31/03:30am 14.6 13.6 11.0 79 1.9 SE 7 9 4 5 1013.6 1013.5 0.0
31/03:00am 12.7 12.4 8.6 76 2.0 CALM 0 0 0 0 1013.8 1013.7 0.0
31/02:30am 14.8 13.6 10.2 74 2.4 SE 7 9 4 5 1013.8 1013.7 0.0
31/02:00am 13.0 11.7 9.1 77 2.0 SSE 6 7 3 4 1014.1 1014.0 0.0
31/01:30am 13.8 12.4 9.0 73 2.4 SE 6 6 3 3 1014.1 1014.0 0.0
31/01:00am 14.3 13.2 9.9 75 2.3 SE 6 7 3 4 1014.1 1014.0 0.0
31/12:30am 14.5 13.7 9.5 72 2.6 SSE 4 7 2 4 1014.3 1014.2 0.0
31/12:00am 15.3 14.7 8.8 65 3.3 SSE 2 7 1 4 1014.5 1014.4 0.0
 
Date/Time
CST
Temp
°C
App
Temp
°C
Dew
Point
°C
Rel
Hum
%
Delta-T
°C
Wind Press
QNH
hPa
Press
MSL
hPa
Rain since
9am
mm
Dir  Spd
km/h
Gust
km/h
Spd
kts
Gust
kts
30/11:30pm 14.8 14.7 9.6 71 2.7 CALM 0 0 0 0 1014.5 1014.4 0.0
30/11:00pm 15.1 14.2 6.1 55 4.3 CALM 0 0 0 0 1014.6 1014.5 0.0
30/10:30pm 16.0 15.4 7.5 57 4.2 CALM 0 0 0 0 1014.6 1014.5 0.0
30/10:00pm 17.2 16.6 7.5 53 4.9 CALM 0 0 0 0 1014.4 1014.3 0.0
30/09:30pm 17.1 16.5 7.5 53 4.8 CALM 0 0 0 0 1014.2 1014.1 0.0
30/09:00pm 17.8 17.0 6.3 47 5.7 CALM 0 0 0 0 1014.0 1013.9 0.0
30/08:30pm 19.2 18.3 7.6 47 5.9 SE 2 6 1 3 1013.7 1013.6 0.0
30/08:29pm 19.4 18.1 7.8 47 6.0 SE 4 6 2 3 1013.7 1013.6 0.0
30/08:00pm 24.4 20.8 3.1 25 10.4 SSE 11 15 6 8 1013.2 1013.1 0.0
30/07:30pm 24.9 20.9 0.4 20 11.4 ESE 11 13 6 7 1012.7 1012.6 0.0
30/07:00pm 25.8 21.5 1.2 20 11.7 ESE 13 15 7 8 1012.6 1012.5 0.0
30/06:30pm 28.3 24.1 1.7 18 13.0 ESE 13 19 7 10 1012.3 1012.2 0.0
30/06:00pm 30.1 26.3 1.5 16 14.0 SE 11 15 6 8 1012.2 1012.1 0.0
30/05:30pm 30.9 26.3 1.3 15 14.6 ESE 15 20 8 11 1012.0 1011.9 0.0
30/05:00pm 31.1 26.5 1.4 15 14.7 SE 15 22 8 12 1011.9 1011.8 0.0
30/04:30pm 31.6 26.5 0.9 14 15.1 E 17 26 9 14 1012.1 1012.0 0.0
30/04:00pm 31.5 27.7 1.8 15 14.8 SE 11 17 6 9 1012.4 1012.3 0.0
30/03:30pm 31.2 26.6 1.5 15 14.7 E 15 20 8 11 1012.6 1012.5 0.0
30/03:00pm 31.1 26.5 1.4 15 14.7 SSE 15 24 8 13 1012.9 1012.8 0.0
30/02:30pm 30.5 25.4 1.0 15 14.4 SE 17 26 9 14 1013.4 1013.3 0.0
30/02:00pm 30.5 25.6 1.9 16 14.2 SE 17 28 9 15 1014.1 1014.0 0.0
30/01:30pm 30.0 24.3 0.6 15 14.2 ESE 20 30 11 16 1014.9 1014.8 0.0
30/01:00pm 29.2 23.4 -0.1 15 13.9 SE 20 30 11 16 1015.4 1015.3 0.0
30/12:30pm 28.9 23.2 0.6 16 13.6 ESE 20 30 11 16 1015.9 1015.8 0.0
30/12:00pm 28.3 22.3 0.9 17 13.2 ESE 22 33 12 18 1016.4 1016.3 0.0
30/11:30am 27.3 20.0 0.1 17 12.8 ESE 28 35 15 19 1016.7 1016.6 0.0
30/11:00am 26.8 19.2 0.5 18 12.4 ESE 30 39 16 21 1017.0 1016.9 0.0
30/10:30am 26.2 18.5 0.0 18 12.2 ESE 30 41 16 22 1017.3 1017.2 0.0
30/10:00am 25.2 19.6 1.3 21 11.3 SE 20 30 11 16 1017.3 1017.2 0.0
30/09:30am 23.6 20.1 3.5 27 9.8 SSE 11 19 6 10 1017.4 1017.3 0.0
30/09:00am 21.7 18.7 3.9 31 8.6 SSE 9 13 5 7 1017.2 1017.1 0.0
30/08:30am 19.3 17.3 6.1 42 6.5 SSE 6 7 3 4 1016.9 1016.8 0.0
30/08:00am 14.9 13.1 7.0 59 3.9 S 6 7 3 4 1016.6 1016.5 0.0
30/07:30am 14.7 11.5 5.2 53 4.5 S 11 15 6 8 1016.2 1016.1 0.0
30/07:00am 10.4 7.9 6.5 77 1.8 SSE 9 9 5 5 1016.0 1015.9 0.0
30/06:30am 10.2 8.2 6.9 80 1.6 SE 7 9 4 5 1015.8 1015.7 0.0
30/06:00am 10.4 9.1 7.6 83 1.3 NE 4 6 2 3 1015.6 1015.5 0.0
30/05:30am 10.8 9.6 8.2 84 1.3 E 4 7 2 4 1015.5 1015.4 0.0
30/05:00am 11.0 10.7 8.6 85 1.2 CALM 0 0 0 0 1015.1 1015.0 0.0
30/04:30am 11.6 11.2 8.1 79 1.7 CALM 0 0 0 0 1015.1 1015.0 0.0
30/04:00am 12.0 11.8 9.2 83 1.4 CALM 0 0 0 0 1015.1 1015.0 0.0
30/03:30am 12.4 11.1 9.8 84 1.3 SE 7 9 4 5 1015.1 1015.0 0.0
30/03:00am 13.6 13.6 9.8 78 2.0 CALM 0 0 0 0 1015.2 1015.1 0.0
30/02:30am 12.6 12.4 8.9 78 1.9 CALM 0 0 0 0 1015.3 1015.2 0.0
30/02:00am 13.1 12.9 9.2 77 2.0 CALM 0 0 0 0 1015.5 1015.4 0.0
30/01:30am 13.6 13.6 9.8 78 2.0 CALM 0 0 0 0 1015.5 1015.4 0.0
30/01:00am 14.2 14.1 9.6 74 2.4 CALM 0 0 0 0 1015.6 1015.5 0.0
30/12:30am 15.3 15.4 10.3 72 2.6 CALM 0 0 0 0 1015.6 1015.5 0.0
30/12:00am 14.8 13.8 8.7 67 3.1 SSE 4 6 2 3 1015.8 1015.7 0.0
 
Date/Time
CST
Temp
°C
App
Temp
°C
Dew
Point
°C
Rel
Hum
%
Delta-T
°C
Wind Press
QNH
hPa
Press
MSL
hPa
Rain since
9am
mm
Dir  Spd
km/h
Gust
km/h
Spd
kts
Gust
kts
29/11:30pm 15.0 14.9 9.6 70 2.8 CALM 0 6 0 3 1015.9 1015.8 0.0
29/11:00pm 15.9 15.8 9.6 66 3.3 CALM 0 0 0 0 1015.8 1015.7 0.0
29/10:30pm 16.5 16.2 8.5 59 4.1 CALM 0 0 0 0 1015.8 1015.7 0.0
29/10:00pm 16.4 16.3 9.6 64 3.6 CALM 0 0 0 0 1015.9 1015.8 0.0
29/09:30pm 17.6 16.9 8.7 56 4.6 SSE 2 6 1 3 1015.6 1015.5 0.0
29/09:00pm 19.2 17.9 9.9 55 5.0 SSE 7 9 4 5 1015.5 1015.4 0.0
29/08:30pm 20.4 18.3 8.1 45 6.4 SSE 9 13 5 7 1015.1 1015.0 0.0
29/08:00pm 24.3 21.4 6.6 32 9.2 SSE 11 11 6 6 1014.8 1014.7 0.0
29/07:30pm 24.9 22.5 7.1 32 9.3 SSE 9 11 5 6 1014.4 1014.3 0.0
29/07:00pm 26.0 23.9 6.6 29 10.2 SSE 7 9 4 5 1014.0 1013.9 0.0
29/06:30pm 27.7 25.2 6.5 26 11.2 SSE 9 13 5 7 1013.7 1013.6 0.0
29/06:00pm 29.2 25.8 6.0 23 12.2 SSE 13 17 7 9 1013.5 1013.4 0.0
29/05:30pm 29.9 26.5 5.9 22 12.7 SE 13 19 7 10 1013.4 1013.3 0.0
29/05:00pm 30.2 26.6 4.8 20 13.2 SE 13 19 7 10 1013.5 1013.4 0.0
29/04:30pm 30.7 25.9 4.4 19 13.6 ESE 19 28 10 15 1013.4 1013.3 0.0
29/04:00pm 30.8 25.8 4.5 19 13.7 SE 20 28 11 15 1013.5 1013.4 0.0
29/03:30pm 30.9 25.4 3.8 18 13.9 ESE 22 33 12 18 1013.7 1013.6 0.0
29/03:00pm 30.0 24.1 3.9 19 13.3 ESE 24 35 13 19 1014.2 1014.1 0.0
29/02:30pm 30.0 24.9 3.9 19 13.3 SE 20 32 11 17 1014.9 1014.8 0.0
29/02:00pm 29.6 24.4 3.6 19 13.2 SE 20 30 11 16 1015.5 1015.4 0.0
29/01:30pm 28.4 23.0 2.6 19 12.8 SE 20 32 11 17 1016.1 1016.0 0.0
29/01:00pm 28.1 22.7 2.3 19 12.7 SE 20 28 11 15 1016.6 1016.5 0.0
29/12:30pm 27.7 22.5 2.7 20 12.3 SE 19 26 10 14 1017.2 1017.1 0.0
29/12:00pm 27.0 20.8 2.1 20 12.1 SE 24 33 13 18 1017.7 1017.6 0.0
29/11:30am 26.2 20.1 2.8 22 11.4 SE 24 35 13 19 1018.1 1018.0 0.0
29/11:00am 25.2 19.3 2.0 22 11.1 SE 22 30 12 16 1018.6 1018.4 0.0
29/10:30am 24.7 18.8 1.6 22 10.9 SE 22 32 12 17 1018.9 1018.7 0.0
29/10:00am 23.9 18.1 2.1 24 10.4 SE 22 32 12 17 1019.0 1018.8 0.0
29/09:30am 23.3 17.4 1.6 24 10.1 SE 22 33 12 18 1018.8 1018.6 0.0
29/09:00am 22.3 17.5 2.4 27 9.4 SE 17 24 9 13 1018.7 1018.5 0.0
29/08:30am 21.6 16.7 2.3 28 9.0 SE 17 24 9 13 1018.6 1018.4 0.0
29/08:00am 20.7 16.1 1.6 28 8.8 SSE 15 20 8 11 1018.1 1018.0 0.0
29/07:30am 20.0 15.0 1.4 29 8.4 SSE 17 20 9 11 1017.8 1017.7 0.0
29/07:00am 19.9 14.9 1.4 29 8.4 SE 17 24 9 13 1017.4 1017.3 0.0
29/06:30am 20.1 15.5 1.5 29 8.5 SSE 15 20 8 11 1017.2 1017.1 0.0
29/06:00am 19.9 15.3 1.4 29 8.4 SSE 15 19 8 10 1016.8 1016.7 0.0
29/05:30am 19.9 15.6 0.9 28 8.5 SSE 13 19 7 10 1016.7 1016.6 0.0
29/05:00am 19.2 15.4 1.7 31 8.0 SSE 11 13 6 7 1016.7 1016.6 0.0
29/04:30am 19.4 16.0 1.9 31 8.0 SSE 9 11 5 6 1016.6 1016.5 0.0
29/04:00am 19.5 16.3 2.8 33 7.8 S 9 11 5 6 1016.4 1016.3 0.0
29/03:30am 19.9 16.2 2.3 31 8.1 SSE 11 13 6 7 1016.3 1016.2 0.0
29/03:00am 19.9 16.3 2.7 32 8.0 SSE 11 13 6 7 1016.5 1016.4 0.0
29/02:30am 20.4 16.8 3.2 32 8.1 SSE 11 13 6 7 1016.5 1016.4 0.0
29/02:00am 20.6 16.8 3.8 33 8.1 SSE 13 15 7 8 1016.7 1016.6 0.0
29/01:30am 20.5 17.1 4.1 34 7.9 SSE 11 13 6 7 1016.8 1016.7 0.0
29/01:00am 16.8 14.9 9.2 61 3.9 SSE 9 13 5 7 1016.9 1016.8 0.0
29/12:30am 15.3 14.4 9.4 68 3.0 E 4 7 2 4 1017.1 1017.0 0.0
29/12:00am 15.8 15.6 9.0 64 3.5 CALM 0 0 0 0 1017.1 1017.0 0.0
 
Date/Time
CST
Temp
°C
App
Temp
°C
Dew
Point
°C
Rel
Hum
%
Delta-T
°C
Wind Press
QNH
hPa
Press
MSL
hPa
Rain since
9am
mm
Dir  Spd
km/h
Gust
km/h
Spd
kts
Gust
kts
28/11:30pm 16.2 16.0 8.9 62 3.7 CALM 0 0 0 0 1017.2 1017.1 0.0
28/11:00pm 16.7 16.3 8.1 57 4.4 CALM 0 0 0 0 1017.1 1017.0 0.0
28/10:30pm 16.4 16.3 9.3 63 3.7 CALM 0 0 0 0 1016.9 1016.8 0.0
28/10:00pm 18.4 16.8 8.1 51 5.3 S 6 7 3 4 1016.8 1016.7 0.0
28/09:30pm 18.3 16.5 7.1 48 5.6 S 6 6 3 3 1016.8 1016.7 0.0
28/09:00pm 18.3 16.9 8.8 54 4.9 SSE 6 7 3 4 1016.6 1016.5 0.0
28/08:30pm 18.8 17.2 8.7 52 5.3 SSE 7 9 4 5 1016.3 1016.2 0.0
28/08:00pm 20.1 18.4 6.1 40 7.0 SSE 4 7 2 4 1016.0 1015.9 0.0
28/07:30pm 23.1 20.3 5.1 31 9.0 SSE 9 11 5 6 1015.7 1015.6 0.0
28/07:00pm 25.3 22.5 5.0 27 10.3 SSE 9 11 5 6 1015.4 1015.3 0.0
28/06:30pm 26.8 23.4 4.0 23 11.4 SSE 11 15 6 8 1015.0 1014.9 0.0
28/06:00pm 28.2 24.2 3.1 20 12.5 SSE 13 19 7 10 1014.8 1014.7 0.0
28/05:30pm 28.9 23.7 2.2 18 13.2 SE 19 24 10 13 1014.6 1014.5 0.0
28/05:00pm 28.9 24.0 2.2 18 13.2 SSE 17 22 9 12 1014.6 1014.5 0.0
28/04:30pm 29.2 24.4 2.5 18 13.3 S 17 26 9 14 1014.6 1014.5 0.0
28/04:00pm 28.9 24.0 2.2 18 13.2 S 17 24 9 13 1014.8 1014.7 0.0
28/03:30pm 28.4 22.7 2.6 19 12.8 S 22 28 12 15 1015.0 1014.9 0.0
28/03:00pm 28.8 23.4 1.3 17 13.3 SSE 19 30 10 16 1015.4 1015.3 0.0
28/02:30pm 28.7 23.8 2.1 18 13.1 SSE 17 26 9 14 1015.8 1015.7 0.0
28/02:00pm 28.4 22.8 1.0 17 13.2 SSE 20 28 11 15 1016.3 1016.2 0.0
28/01:30pm 27.8 22.3 0.5 17 12.9 SSE 19 30 10 16 1016.9 1016.8 0.0
28/01:00pm 27.7 22.0 0.5 17 12.9 SSE 20 30 11 16 1017.5 1017.4 0.0
28/12:30pm 26.1 20.3 0.0 18 12.1 SE 20 30 11 16 1018.3 1018.2 0.0
28/12:00pm 25.9 20.1 -0.2 18 12.1 SE 20 28 11 15 1019.0 1018.8 0.0
28/11:30am 25.4 19.5 -0.6 18 11.9 SE 20 30 11 16 1019.6 1019.4 0.0
28/11:00am 24.6 18.3 -1.3 18 11.6 SE 22 32 12 17 1020.1 1019.9 0.0
28/10:30am 24.6 18.4 -0.5 19 11.4 SE 22 30 12 16 1020.3 1020.1 0.0
28/10:00am 23.9 16.7 -1.8 18 11.3 ESE 26 35 14 19 1020.6 1020.4 0.0
28/09:30am 23.2 16.1 -1.0 20 10.8 ESE 26 35 14 19 1020.6 1020.4 0.0
28/09:00am 22.5 15.7 -1.6 20 10.6 ESE 24 35 13 19 1020.5 1020.3 0.0
28/08:30am 22.3 16.6 -1.1 21 10.3 SE 19 32 10 17 1020.3 1020.1 0.0
28/08:00am 21.5 16.6 -0.5 23 9.8 SE 15 26 8 14 1019.9 1019.7 0.0

Other Formats:

Comma delimited format used in spreadsheet applications
http://www.bom.gov.au/fwo/IDD60801/IDD60801.94216.axf

JavaScript Object Notation format (JSON) in row-major order
http://www.bom.gov.au/fwo/IDD60801/IDD60801.94216.json